createdAt,value
2018-03-24T00:01:16.210Z,100041.36
2018-03-24T00:03:41.992Z,100037.30
2018-03-24T00:06:07.747Z,100040.33
2018-03-24T00:08:33.489Z,100032.75
2018-03-24T00:10:59.249Z,100030.66
2018-03-24T00:13:25.000Z,100032.34
2018-03-24T00:15:50.753Z,100035.58
2018-03-24T00:18:16.526Z,100033.44
2018-03-24T00:20:42.348Z,100027.69
2018-03-24T00:23:08.100Z,100027.95
2018-03-24T00:25:34.225Z,100037.45
2018-03-24T00:27:59.991Z,100029.14
2018-03-24T00:30:25.745Z,100034.34
2018-03-24T00:32:51.513Z,100028.22
2018-03-24T00:35:17.297Z,100032.56
2018-03-24T00:37:43.049Z,100032.91
2018-03-24T00:40:08.829Z,100030.56
2018-03-24T00:42:34.601Z,100027.13
2018-03-24T00:45:00.365Z,100030.98
2018-03-24T00:47:26.131Z,100037.31
2018-03-24T00:50:07.178Z,100028.38
2018-03-24T00:52:33.019Z,100032.41
2018-03-24T00:54:58.744Z,100029.06
2018-03-24T00:57:24.504Z,100027.48
2018-03-24T00:59:50.275Z,100027.95
2018-03-24T01:02:16.029Z,100035.17
2018-03-24T01:04:41.790Z,100027.96
2018-03-24T01:07:07.552Z,99998.27
2018-03-24T01:09:33.305Z,100026.03
2018-03-24T01:11:59.077Z,100029.54
2018-03-24T01:14:24.837Z,100027.34
2018-03-24T01:16:50.591Z,100028.23
2018-03-24T01:19:16.368Z,100027.81
2018-03-24T01:21:42.133Z,100032.36
2018-03-24T01:24:08.321Z,100024.67
2018-03-24T01:26:34.093Z,100022.80
2018-03-24T01:28:59.862Z,100027.81
2018-03-24T01:31:25.616Z,100027.40
2018-03-24T01:33:51.397Z,100024.73
2018-03-24T01:36:17.186Z,100029.33
2018-03-24T01:38:42.953Z,100024.11
2018-03-24T01:41:09.046Z,100020.40
2018-03-24T01:43:34.817Z,100022.33
2018-03-24T01:46:00.581Z,100016.28
2018-03-24T01:48:26.365Z,100007.08
2018-03-24T01:50:52.121Z,100015.03
2018-03-24T01:53:17.936Z,100012.48
2018-03-24T01:55:43.717Z,100010.02
2018-03-24T01:58:10.090Z,100007.20
2018-03-24T02:00:35.846Z,100010.84
2018-03-24T02:03:01.648Z,100015.98
2018-03-24T02:05:27.385Z,100013.37
2018-03-24T02:07:53.166Z,100005.63
2018-03-24T02:10:18.963Z,100007.34
2018-03-24T02:12:44.713Z,100006.25
2018-03-24T02:15:10.469Z,100001.56
2018-03-24T02:17:36.254Z,100004.44
2018-03-24T02:20:02.043Z,100006.63
2018-03-24T02:22:28.262Z,100002.66
2018-03-24T02:24:56.814Z,99999.01
2018-03-24T02:27:22.576Z,100004.38
2018-03-24T02:29:48.353Z,100005.11
2018-03-24T02:32:14.174Z,99999.89
2018-03-24T02:34:39.931Z,100001.88
2018-03-24T02:37:05.718Z,100003.75
2018-03-24T02:39:31.485Z,100002.44
2018-03-24T02:41:57.272Z,100002.80
2018-03-24T02:44:23.021Z,99998.47
2018-03-24T02:46:48.791Z,99995.50
2018-03-24T02:49:14.541Z,99999.05
2018-03-24T02:51:40.280Z,100003.89
2018-03-24T02:54:06.389Z,100000.16
2018-03-24T02:56:32.145Z,100000.78
2018-03-24T02:58:57.907Z,100001.77
2018-03-24T03:01:23.693Z,100004.43
2018-03-24T03:03:49.440Z,100006.30
2018-03-24T03:06:15.213Z,99981.81
2018-03-24T03:08:40.977Z,99999.98
2018-03-24T03:11:06.753Z,99999.62
2018-03-24T03:13:32.576Z,99999.56
2018-03-24T03:15:58.336Z,100007.17
2018-03-24T03:18:24.986Z,99999.94
2018-03-24T03:20:51.112Z,99995.33
2018-03-24T03:23:16.888Z,99998.56
2018-03-24T03:25:42.672Z,99994.02
2018-03-24T03:28:08.451Z,100003.22
2018-03-24T03:30:38.190Z,100000.22
2018-03-24T03:33:04.015Z,100000.95
2018-03-24T03:35:29.734Z,100002.41
2018-03-24T03:37:55.825Z,100006.70
2018-03-24T03:40:21.581Z,100006.23
2018-03-24T03:42:47.334Z,100013.42
2018-03-24T03:45:13.117Z,100010.70
2018-03-24T03:47:38.869Z,100007.94
2018-03-24T03:50:04.637Z,100014.25
2018-03-24T03:52:30.437Z,100010.01
2018-03-24T03:54:56.559Z,100015.70
2018-03-24T03:57:22.324Z,100017.33
2018-03-24T03:59:48.117Z,100009.86
2018-03-24T04:02:13.874Z,100007.78
2018-03-24T04:04:39.642Z,100008.20
2018-03-24T04:07:05.404Z,100014.03
2018-03-24T04:09:31.165Z,100009.85
2018-03-24T04:11:56.966Z,100012.05
2018-03-24T04:14:22.724Z,100009.80
2018-03-24T04:16:48.470Z,100010.39
2018-03-24T04:19:14.248Z,100012.25
2018-03-24T04:21:40.544Z,100011.01
2018-03-24T04:24:06.286Z,100008.60
2018-03-24T04:26:32.080Z,100010.54
2018-03-24T04:28:57.827Z,100010.13
2018-03-24T04:31:23.589Z,100016.59
2018-03-24T04:33:49.369Z,100024.05
2018-03-24T04:36:15.116Z,100015.80
2018-03-24T04:38:41.093Z,100011.81
2018-03-24T04:41:06.857Z,100013.37
2018-03-24T04:43:32.621Z,100019.23
2018-03-24T04:45:58.382Z,100010.58
2018-03-24T04:48:24.173Z,100010.08
2018-03-24T04:50:49.929Z,100011.47
2018-03-24T04:53:15.702Z,100015.11
2018-03-24T04:55:41.843Z,100020.05
2018-03-24T04:58:07.589Z,100018.11
2018-03-24T05:00:33.344Z,100016.34
2018-03-24T05:02:59.109Z,100017.91
2018-03-24T05:05:24.882Z,100019.22
2018-03-24T05:07:50.644Z,100012.64
2018-03-24T05:10:16.417Z,100012.86
2018-03-24T05:12:42.168Z,100025.73
2018-03-24T05:15:07.925Z,100019.43
2018-03-24T05:17:33.681Z,100024.59
2018-03-24T05:19:59.928Z,100010.91
2018-03-24T05:22:25.743Z,100020.95
2018-03-24T05:24:51.482Z,100026.41
2018-03-24T05:27:17.242Z,100028.61
2018-03-24T05:29:43.025Z,100028.83
2018-03-24T05:32:08.803Z,100029.17
2018-03-24T05:34:34.549Z,100031.36
2018-03-24T05:37:00.337Z,100029.12
2018-03-24T05:39:26.081Z,100031.16
2018-03-24T05:41:51.837Z,100034.80
2018-03-24T05:44:17.611Z,100039.92
2018-03-24T05:46:43.381Z,100028.59
2018-03-24T05:49:09.246Z,100029.66
2018-03-24T05:51:35.353Z,100035.34
2018-03-24T05:54:01.101Z,100036.66
2018-03-24T05:56:26.865Z,100044.39
2018-03-24T05:58:52.633Z,100050.44
2018-03-24T06:01:18.431Z,100043.56
2018-03-24T06:03:44.180Z,100047.64
2018-03-24T06:06:09.969Z,100046.66
2018-03-24T06:08:35.769Z,100050.58
2018-03-24T06:11:01.540Z,100055.73
2018-03-24T06:13:27.320Z,100056.41
2018-03-24T06:15:53.093Z,100058.12
2018-03-24T06:18:19.537Z,100061.09
2018-03-24T06:20:45.345Z,100063.55
2018-03-24T06:23:11.107Z,100066.52
2018-03-24T06:25:36.887Z,100061.69
2018-03-24T06:28:02.666Z,100062.72
2018-03-24T06:30:29.281Z,100064.80
2018-03-24T06:32:55.065Z,100062.83
2018-03-24T06:35:21.235Z,100071.86
2018-03-24T06:37:47.067Z,100071.19
2018-03-24T06:40:12.864Z,100070.78
2018-03-24T06:42:38.608Z,100068.38
2018-03-24T06:45:04.349Z,100065.16
2018-03-24T06:47:30.136Z,100073.70
2018-03-24T06:49:55.880Z,100073.14
2018-03-24T06:52:21.631Z,100075.55
2018-03-24T06:54:47.661Z,100079.73
2018-03-24T06:57:13.438Z,100076.23
2018-03-24T06:59:39.204Z,100075.73
2018-03-24T07:02:04.961Z,100086.84
2018-03-24T07:04:30.733Z,100081.84
2018-03-24T07:06:56.497Z,100084.56
2018-03-24T07:09:22.265Z,100082.84
2018-03-24T07:11:48.023Z,100079.26
2018-03-24T07:14:13.805Z,100083.06
2018-03-24T07:16:39.565Z,100087.26
2018-03-24T07:19:05.729Z,100085.48
2018-03-24T07:21:31.506Z,100089.34
2018-03-24T07:23:57.265Z,100092.38
2018-03-24T07:26:23.049Z,100092.08
2018-03-24T07:28:48.821Z,100095.27
2018-03-24T07:31:14.588Z,100099.34
2018-03-24T07:33:40.397Z,100098.67
2018-03-24T07:36:06.689Z,100101.08
2018-03-24T07:38:32.473Z,100103.27
2018-03-24T07:40:58.232Z,100104.38
2018-03-24T07:43:24.051Z,100100.14
2018-03-24T07:45:49.808Z,100112.01
2018-03-24T07:48:15.560Z,100102.13
2018-03-24T07:50:41.337Z,100107.14
2018-03-24T07:53:07.088Z,100092.72
2018-03-24T07:55:33.116Z,100094.02
2018-03-24T07:57:58.892Z,100103.37
2018-03-24T08:00:24.645Z,100106.87
2018-03-24T08:02:50.413Z,100113.41
2018-03-24T08:05:16.192Z,100108.44
2018-03-24T08:07:41.929Z,100110.98
2018-03-24T08:10:07.688Z,100106.86
2018-03-24T08:12:33.432Z,100112.85
2018-03-24T08:14:59.191Z,100115.61
2018-03-24T08:17:24.964Z,100117.86
2018-03-24T08:19:50.725Z,100113.45
2018-03-24T08:22:16.488Z,100112.20
2018-03-24T08:24:42.277Z,100116.25
2018-03-24T08:27:08.553Z,100110.18
2018-03-24T08:29:34.322Z,100120.85
2018-03-24T08:32:00.101Z,100111.56
2018-03-24T08:34:25.879Z,100114.50
2018-03-24T08:36:51.651Z,100114.38
2018-03-24T08:39:17.430Z,100112.89
2018-03-24T08:41:43.194Z,100114.66
2018-03-24T08:44:08.866Z,100116.65
2018-03-24T08:46:34.637Z,100112.09
2018-03-24T08:49:00.428Z,100116.16
2018-03-24T08:51:26.327Z,100125.66
2018-03-24T08:53:52.105Z,100118.89
2018-03-24T08:56:17.853Z,100122.48
2018-03-24T08:58:43.920Z,100128.95
2018-03-24T09:01:09.696Z,100129.59
2018-03-24T09:03:35.439Z,100135.61
2018-03-24T09:06:01.195Z,100140.92
2018-03-24T09:08:26.881Z,100141.40
2018-03-24T09:10:52.666Z,100130.71
2018-03-24T09:13:18.433Z,100136.53
2018-03-24T09:15:44.229Z,100138.23
2018-03-24T09:18:09.922Z,100136.73
2018-03-24T09:20:35.701Z,100140.25
2018-03-24T09:23:01.486Z,100139.65
2018-03-24T09:25:27.156Z,100141.72
2018-03-24T09:27:53.403Z,100140.54
2018-03-24T09:30:19.204Z,100141.05
2018-03-24T09:32:44.957Z,100139.60
2018-03-24T09:35:10.725Z,100134.73
2018-03-24T09:37:36.541Z,100131.78
2018-03-24T09:40:02.307Z,100131.63
2018-03-24T09:42:28.074Z,100132.55
2018-03-24T09:44:53.847Z,100137.94
2018-03-24T09:47:19.605Z,100137.24
2018-03-24T09:49:45.353Z,100140.53
2018-03-24T09:52:11.396Z,100139.53
2018-03-24T09:54:37.140Z,100140.95
2018-03-24T09:57:02.901Z,100138.64
2018-03-24T09:59:28.588Z,100137.34
2018-03-24T10:01:54.347Z,100137.92
2018-03-24T10:04:20.097Z,100133.86
2018-03-24T10:06:45.869Z,100134.48
2018-03-24T10:09:12.017Z,100140.21
2018-03-24T10:11:37.778Z,100139.90
2018-03-24T10:14:03.547Z,100140.97
2018-03-24T10:16:29.216Z,100139.95
2018-03-24T10:18:54.979Z,100140.56
2018-03-24T10:24:34.133Z,100122.58
2018-03-24T10:26:59.909Z,100133.24
2018-03-24T10:29:26.039Z,100126.75
2018-03-24T10:31:51.813Z,100133.52
2018-03-24T10:34:17.565Z,100132.73
2018-03-24T10:36:43.324Z,100139.03
2018-03-24T10:39:09.113Z,100133.88
2018-03-24T10:41:34.897Z,100137.57
2018-03-24T10:44:00.669Z,100136.84
2018-03-24T10:46:26.454Z,100136.28
2018-03-24T10:48:52.219Z,100134.14
2018-03-24T10:51:17.965Z,100132.84
2018-03-24T10:53:44.024Z,100134.84
2018-03-24T10:56:09.769Z,100135.28
2018-03-24T10:58:35.509Z,100130.52
2018-03-24T11:01:03.090Z,100130.92
2018-03-24T11:03:28.874Z,100129.11
2018-03-24T11:05:54.561Z,100141.19
2018-03-24T11:08:20.224Z,100138.20
2018-03-24T11:10:46.034Z,100139.84
2018-03-24T11:13:11.829Z,100134.59
2018-03-24T11:15:37.606Z,100136.50
2018-03-24T11:18:03.382Z,100135.84
2018-03-24T11:20:29.148Z,100139.46
2018-03-24T11:22:55.237Z,100136.03
2018-03-24T11:25:20.989Z,100133.64
2018-03-24T11:27:46.774Z,100134.47
2018-03-24T11:30:12.565Z,100130.09
2018-03-24T11:32:38.329Z,100134.20
2018-03-24T11:35:04.117Z,100132.88
2018-03-24T11:37:29.887Z,100132.56
2018-03-24T11:39:55.651Z,100137.17
2018-03-24T11:42:21.415Z,100133.64
2018-03-24T11:44:47.178Z,100132.16
2018-03-24T11:47:12.961Z,100134.97
2018-03-24T11:49:38.746Z,100134.05
2018-03-24T11:52:04.853Z,100126.17
2018-03-24T11:54:42.865Z,100132.26
2018-03-24T11:57:08.622Z,100130.09
2018-03-24T11:59:34.634Z,100135.16
2018-03-24T12:02:07.349Z,100131.90
2018-03-24T12:04:33.099Z,100134.55
2018-03-24T12:06:59.178Z,100134.53
2018-03-24T12:09:25.021Z,100132.64
2018-03-24T12:11:50.767Z,100125.03
2018-03-24T12:14:16.541Z,100121.95
2018-03-24T12:16:42.292Z,100126.99
2018-03-24T12:19:08.048Z,100127.54
2018-03-24T12:21:33.835Z,100123.43
2018-03-24T12:23:59.853Z,100121.20
2018-03-24T12:26:25.635Z,100116.94
2018-03-24T12:28:51.405Z,100112.50
2018-03-24T12:31:17.153Z,100118.37
2018-03-24T12:33:42.929Z,100113.73
2018-03-24T12:36:08.686Z,100115.39
2018-03-24T12:38:34.346Z,100113.21
2018-03-24T12:41:00.110Z,100114.75
2018-03-24T12:43:25.857Z,100108.36
2018-03-24T12:45:51.616Z,100112.62
2018-03-24T12:48:17.421Z,100114.09
2018-03-24T12:50:43.209Z,100116.87
2018-03-24T12:53:09.198Z,100110.64
2018-03-24T12:55:34.876Z,100119.81
2018-03-24T12:58:00.531Z,100114.23
2018-03-24T13:00:26.294Z,100119.41
2018-03-24T13:02:52.085Z,100114.70
2018-03-24T13:05:17.829Z,100118.45
2018-03-24T13:07:43.581Z,100118.08
2018-03-24T13:10:09.454Z,100109.14
2018-03-24T13:12:35.229Z,100108.61
2018-03-24T13:15:00.976Z,100112.86
2018-03-24T13:17:26.743Z,100108.63
2018-03-24T13:19:52.501Z,100118.41
2018-03-24T13:22:18.257Z,100111.52
2018-03-24T13:24:44.018Z,100117.80
2018-03-24T13:27:10.122Z,100110.84
2018-03-24T13:29:35.897Z,100112.18
2018-03-24T13:32:01.667Z,100113.95
2018-03-24T13:34:27.434Z,100117.16
2018-03-24T13:36:53.224Z,100120.61
2018-03-24T13:39:19.004Z,100120.89
2018-03-24T13:41:44.766Z,100123.11
2018-03-24T13:44:10.521Z,100121.30
2018-03-24T13:46:36.289Z,100122.45
2018-03-24T13:49:02.032Z,100118.00
2018-03-24T13:51:28.223Z,100120.64
2018-03-24T13:53:53.988Z,100120.22
2018-03-24T13:56:19.758Z,100118.58
2018-03-24T13:58:45.509Z,100123.84
2018-03-24T14:01:11.296Z,100118.19
2018-03-24T14:03:37.063Z,100122.05
2018-03-24T14:06:02.828Z,100120.91
2018-03-24T14:08:28.576Z,100118.84
2018-03-24T14:10:54.348Z,100119.09
2018-03-24T14:13:20.113Z,100106.50
2018-03-24T14:15:45.876Z,100110.44
2018-03-24T14:18:11.640Z,100115.88
2018-03-24T14:20:37.422Z,100107.91
2018-03-24T14:23:03.173Z,100111.09
2018-03-24T14:25:29.266Z,100119.75
2018-03-24T14:27:55.037Z,100123.11
2018-03-24T14:30:20.796Z,100113.95
2018-03-24T14:32:46.542Z,100117.25
2018-03-24T14:35:12.333Z,100115.93
2018-03-24T14:37:38.101Z,100115.59
2018-03-24T14:40:03.878Z,100115.34
2018-03-24T14:42:29.621Z,100117.59
2018-03-24T14:44:55.369Z,100122.17
2018-03-24T14:47:21.118Z,100122.41
2018-03-24T14:49:46.873Z,100122.23
2018-03-24T14:52:12.955Z,100118.23
2018-03-24T14:54:38.719Z,100117.54
2018-03-24T14:57:04.485Z,100119.02
2018-03-24T14:59:30.236Z,100121.27
2018-03-24T15:01:55.991Z,100122.24
2018-03-24T15:04:21.758Z,100124.36
2018-03-24T15:06:47.557Z,100119.91
2018-03-24T15:09:13.791Z,100123.19
2018-03-24T15:11:39.552Z,100123.12
2018-03-24T15:14:05.344Z,100122.11
2018-03-24T15:16:31.109Z,100120.14
2018-03-24T15:18:56.902Z,100121.64
2018-03-24T15:21:22.663Z,100123.88
2018-03-24T15:23:48.836Z,100121.73
2018-03-24T15:26:14.601Z,100117.31
2018-03-24T15:28:53.245Z,100118.11
2018-03-24T15:31:31.301Z,100117.21
2018-03-24T15:34:09.373Z,100111.95
2018-03-24T15:36:41.594Z,100114.83
2018-03-24T15:39:07.382Z,100118.52
2018-03-24T15:41:33.161Z,100113.41
2018-03-24T15:43:58.945Z,100119.25
2018-03-24T15:46:24.726Z,100118.66
2018-03-24T15:48:50.490Z,100119.63
2018-03-24T15:51:16.336Z,100123.57
2018-03-24T15:53:42.505Z,100126.20
2018-03-24T15:56:08.351Z,100119.22
2018-03-24T15:58:34.117Z,100123.33
2018-03-24T16:00:59.956Z,100123.25
2018-03-24T16:03:25.775Z,100131.86
2018-03-24T16:05:51.557Z,100133.97
2018-03-24T16:08:17.322Z,100125.91
2018-03-24T16:10:43.077Z,100133.34
2018-03-24T16:21:46.825Z,100117.41
2018-03-24T16:24:12.589Z,100135.08
2018-03-24T16:26:38.602Z,100139.43
2018-03-24T16:29:04.385Z,100145.82
2018-03-24T16:31:30.137Z,100146.88
2018-03-24T16:33:55.901Z,100149.16
2018-03-24T16:36:21.673Z,100142.28
2018-03-24T16:38:47.436Z,100142.77
2018-03-24T16:41:13.177Z,100144.19
2018-03-24T16:43:38.960Z,100153.02
2018-03-24T16:46:04.726Z,100153.98
2018-03-24T16:48:30.471Z,100154.16
2018-03-24T16:50:56.257Z,100153.39
2018-03-24T16:53:22.018Z,100154.53
2018-03-24T16:55:48.207Z,100151.24
2018-03-24T16:58:13.982Z,100151.95
2018-03-24T17:00:39.722Z,100156.96
2018-03-24T17:03:05.484Z,100156.96
2018-03-24T17:05:31.256Z,100155.13
2018-03-24T17:07:57.017Z,100157.43
2018-03-24T17:10:22.775Z,100162.15
2018-03-24T17:12:48.546Z,100159.70
2018-03-24T17:15:14.321Z,100156.07
2018-03-24T17:17:40.109Z,100168.34
2018-03-24T17:20:05.881Z,100167.52
2018-03-24T17:22:31.667Z,100170.70
2018-03-24T17:24:57.460Z,100168.45
2018-03-24T17:27:23.668Z,100167.53
2018-03-24T17:29:49.425Z,100174.75
2018-03-24T17:32:15.188Z,100169.33
2018-03-24T17:34:40.945Z,100175.77
2018-03-24T17:37:06.716Z,100171.58
2018-03-24T17:39:32.466Z,100172.23
2018-03-24T17:41:58.233Z,100178.38
2018-03-24T17:44:24.139Z,100176.41
2018-03-24T17:46:49.797Z,100176.98
2018-03-24T17:49:15.529Z,100175.30
2018-03-24T17:51:41.317Z,100175.59
2018-03-24T17:54:07.089Z,100175.19
2018-03-24T17:56:33.281Z,100184.11
2018-03-24T17:58:59.056Z,100178.09
2018-03-24T18:01:24.816Z,100183.03
2018-03-24T18:03:50.553Z,100181.30
2018-03-24T18:06:16.317Z,100187.28
2018-03-24T18:08:42.065Z,100188.34
2018-03-24T18:11:07.837Z,100188.22
2018-03-24T18:13:33.581Z,100191.06
2018-03-24T18:15:59.318Z,100190.75
2018-03-24T18:18:25.102Z,100187.70
2018-03-24T18:20:51.090Z,100186.88
2018-03-24T18:23:16.865Z,100199.39
2018-03-24T18:25:42.658Z,100200.19
2018-03-24T18:28:09.028Z,100203.29
2018-03-24T18:30:34.793Z,100201.56
2018-03-24T18:33:00.631Z,100206.02
2018-03-24T18:35:26.329Z,100209.20
2018-03-24T18:37:52.084Z,100210.17
2018-03-24T18:40:17.860Z,100216.53
2018-03-24T18:42:43.618Z,100214.42
2018-03-24T18:45:09.373Z,100216.12
2018-03-24T18:47:35.136Z,100222.77
2018-03-24T18:50:00.885Z,100221.59
2018-03-24T18:52:26.661Z,100226.03
2018-03-24T18:54:52.455Z,100227.28
2018-03-24T18:57:18.632Z,100229.93
2018-03-24T18:59:44.399Z,100228.11
2018-03-24T19:02:10.451Z,100230.13
2018-03-24T19:04:36.249Z,100234.59
2018-03-24T19:07:02.001Z,100230.41
2018-03-24T19:09:27.812Z,100227.12
2018-03-24T19:11:53.588Z,100233.16
2018-03-24T19:14:19.352Z,100226.22
2018-03-24T19:16:45.113Z,100227.41
2018-03-24T19:19:10.860Z,100226.22
2018-03-24T19:21:36.606Z,100235.07
2018-03-24T19:24:02.801Z,100234.17
2018-03-24T19:26:28.574Z,100234.59
2018-03-24T19:28:54.340Z,100235.39
2018-03-24T19:31:20.105Z,100228.27
2018-03-24T19:33:45.881Z,100230.33
2018-03-24T19:36:11.674Z,100217.22
2018-03-24T19:38:37.437Z,100241.00
2018-03-24T19:41:03.186Z,100242.09
2018-03-24T19:43:28.936Z,100241.67
2018-03-24T19:45:54.696Z,100242.11
2018-03-24T19:48:20.429Z,100241.48
2018-03-24T19:50:46.160Z,100238.38
2018-03-24T19:53:12.379Z,100247.13
2018-03-24T19:55:38.133Z,100242.85
2018-03-24T19:58:03.904Z,100243.55
2018-03-24T20:00:29.714Z,100247.16
2018-03-24T20:02:55.449Z,100245.23
2018-03-24T20:05:21.189Z,100243.35
2018-03-24T20:07:46.964Z,100241.02
2018-03-24T20:10:12.721Z,100244.14
2018-03-24T20:12:38.479Z,100241.84
2018-03-24T20:15:04.246Z,100249.64
2018-03-24T20:17:30.017Z,100247.56
2018-03-24T20:19:55.772Z,100239.92
2018-03-24T20:22:21.565Z,100243.38
2018-03-24T20:24:47.714Z,100252.70
2018-03-24T20:27:13.457Z,100247.59
2018-03-24T20:29:39.242Z,100254.03
2018-03-24T20:32:05.012Z,100252.37
2018-03-24T20:34:30.856Z,100251.63
2018-03-24T20:36:56.642Z,100254.41
2018-03-24T20:39:22.386Z,100250.64
2018-03-24T20:41:48.188Z,100258.92
2018-03-24T20:44:13.949Z,100257.13
2018-03-24T20:46:39.704Z,100257.55
2018-03-24T20:49:05.480Z,100255.41
2018-03-24T20:51:31.238Z,100261.49
2018-03-24T20:53:56.989Z,100263.91
2018-03-24T20:56:23.469Z,100265.13
2018-03-24T20:58:49.230Z,100262.60
2018-03-24T21:01:14.992Z,100265.48
2018-03-24T21:03:40.750Z,100271.27
2018-03-24T21:06:06.521Z,100269.27
2018-03-24T21:08:32.271Z,100273.00
2018-03-24T21:10:58.029Z,100279.91
2018-03-24T21:13:23.780Z,100280.73
2018-03-24T21:15:49.536Z,100281.34
2018-03-24T21:18:15.286Z,100279.77
2018-03-24T21:20:41.460Z,100286.53
2018-03-24T21:23:07.214Z,100282.41
2018-03-24T21:25:32.981Z,100285.50
2018-03-24T21:27:58.713Z,100285.50
2018-03-24T21:30:24.465Z,100283.77
2018-03-24T21:32:50.237Z,100284.08
2018-03-24T21:35:15.986Z,100290.90
2018-03-24T21:37:42.169Z,100290.91
2018-03-24T21:40:08.001Z,100289.81
2018-03-24T21:42:33.749Z,100294.08
2018-03-24T21:44:59.527Z,100290.99
2018-03-24T21:47:25.297Z,100284.87
2018-03-24T21:49:51.060Z,100291.33
2018-03-24T21:52:16.842Z,100287.70
2018-03-24T21:54:42.609Z,100293.47
2018-03-24T21:57:08.357Z,100291.63
2018-03-24T21:59:34.114Z,100293.53
2018-03-24T22:02:00.535Z,100285.84
2018-03-24T22:04:26.293Z,100302.31
2018-03-24T22:06:52.074Z,100291.70
2018-03-24T22:09:17.832Z,100290.81
2018-03-24T22:11:43.582Z,100291.34
2018-03-24T22:14:09.350Z,100288.73
2018-03-24T22:16:35.101Z,100288.52
2018-03-24T22:19:00.891Z,100278.53
2018-03-24T22:21:26.678Z,100280.56
2018-03-24T22:23:52.437Z,100287.30
2018-03-24T22:26:18.184Z,100287.30
2018-03-24T22:28:44.391Z,100288.61
2018-03-24T22:31:10.226Z,100292.03
2018-03-24T22:33:35.970Z,100285.23
2018-03-24T22:36:01.740Z,100291.72
2018-03-24T22:38:27.506Z,100294.66
2018-03-24T22:40:53.265Z,100291.30
2018-03-24T22:43:19.037Z,100292.25
2018-03-24T22:45:44.791Z,100297.06
2018-03-24T22:48:10.549Z,100292.25
2018-03-24T22:50:36.338Z,100297.27
2018-03-24T22:53:02.080Z,100291.41
2018-03-24T22:55:28.363Z,100289.78
2018-03-24T22:57:54.129Z,100287.28
2018-03-24T23:00:19.889Z,100288.33
2018-03-24T23:02:45.654Z,100282.94
2018-03-24T23:05:11.416Z,100287.08
2018-03-24T23:07:37.231Z,100286.75
2018-03-24T23:10:03.037Z,100281.64
2018-03-24T23:12:28.782Z,100283.66
2018-03-24T23:14:54.682Z,100279.44
2018-03-24T23:20:04.626Z,100285.98
2018-03-24T23:22:30.724Z,100279.86
2018-03-24T23:24:56.491Z,100277.81
2018-03-24T23:27:22.244Z,100275.25
2018-03-24T23:29:47.985Z,100283.16
2018-03-24T23:32:13.721Z,100285.36
2018-03-24T23:34:39.482Z,100285.09
2018-03-24T23:37:05.244Z,100281.02
2018-03-24T23:39:30.997Z,100286.97
2018-03-24T23:41:56.769Z,100286.61
2018-03-24T23:44:22.508Z,100287.50
2018-03-24T23:46:48.280Z,100279.45
2018-03-24T23:49:14.041Z,100282.95
2018-03-24T23:51:39.789Z,100285.57
2018-03-24T23:54:05.777Z,100284.50
2018-03-24T23:56:31.552Z,100282.72
2018-03-24T23:58:57.305Z,100282.95
